Time;durP1;ratioP1;P1;durP2;ratioP2;P2;SDS_P1;SDS_P2;PMS_P1;PMS_P2;Temp;Humidity;BMP_temperature;BMP_pressure;BME280_temperature;BME280_humidity;BME280_pressure;Samples;Min_cycle;Max_cycle;Signal;HPM_P1;HPM_P2
2023/01/28 00:00:51;;;;;;;18.95;11.10;;;;;;;2.13;96.55;102529.16;4983223;28;20201;-77
2023/01/28 00:03:17;;;;;;;21.77;11.15;;;;;;;2.16;96.76;102533.31;4997167;28;20049;-78
2023/01/28 00:05:42;;;;;;;23.08;12.30;;;;;;;2.16;95.69;102533.31;4984399;28;20097;-78
2023/01/28 00:08:09;;;;;;;20.40;11.05;;;;;;;2.06;95.82;102534.56;4983085;28;20061;-78
2023/01/28 00:10:38;;;;;;;20.23;10.40;;;;;;;2.03;96.43;102539.78;4992301;28;20034;-77
2023/01/28 00:13:06;;;;;;;21.90;11.05;;;;;;;2.01;96.86;102531.31;4984047;28;20488;-77
2023/01/28 00:15:31;;;;;;;23.67;14.30;;;;;;;2.10;95.88;102533.53;4998177;28;20033;-78
2023/01/28 00:17:57;;;;;;;25.83;11.90;;;;;;;2.06;95.88;102525.16;4994686;28;20547;-78
2023/01/28 00:20:23;;;;;;;25.00;12.65;;;;;;;2.08;95.37;102520.81;4998820;28;20040;-77
2023/01/28 00:22:49;;;;;;;18.92;11.18;;;;;;;2.10;95.01;102529.25;4982211;28;20497;-77
2023/01/28 00:25:15;;;;;;;23.85;12.27;;;;;;;2.10;94.63;102518.19;4994479;28;20492;-78
2023/01/28 00:27:41;;;;;;;20.88;11.75;;;;;;;2.06;94.95;102516.66;4997639;28;20038;-78
2023/01/28 00:30:08;;;;;;;24.60;11.73;;;;;;;2.04;95.97;102521.00;4979227;28;20035;-77
2023/01/28 00:32:35;;;;;;;19.77;11.73;;;;;;;2.03;95.73;102520.13;4982774;28;20030;-77
2023/01/28 00:35:00;;;;;;;22.42;11.75;;;;;;;2.02;95.11;102521.03;4994819;28;20038;-77
2023/01/28 00:37:26;;;;;;;20.83;11.80;;;;;;;1.98;95.51;102518.63;4981619;28;20504;-77
2023/01/28 00:39:51;;;;;;;26.75;13.27;;;;;;;2.02;95.14;102525.34;4981634;28;20128;-78
2023/01/28 00:42:17;;;;;;;23.77;12.68;;;;;;;1.94;95.47;102526.44;4969839;28;20030;-77
2023/01/28 00:44:43;;;;;;;20.33;11.80;;;;;;;1.96;95.54;102521.28;4983924;28;20408;-77
2023/01/28 00:47:08;;;;;;;20.45;12.30;;;;;;;1.98;94.44;102523.75;4966443;28;20031;-78
2023/01/28 00:49:34;;;;;;;19.23;11.85;;;;;;;1.97;95.17;102520.38;4970229;28;20480;-77
2023/01/28 00:52:00;;;;;;;21.80;11.32;;;;;;;1.94;95.08;102528.16;4979147;28;20038;-77
2023/01/28 00:54:26;;;;;;;22.50;12.35;;;;;;;1.92;95.19;102527.38;4960717;28;20039;-77
2023/01/28 00:56:54;;;;;;;22.13;12.30;;;;;;;1.88;95.14;102528.38;4960303;28;20117;-77
2023/01/28 00:59:20;;;;;;;21.15;11.45;;;;;;;1.86;95.72;102520.75;4976265;28;20041;-77
2023/01/28 01:01:46;;;;;;;28.52;12.63;;;;;;;1.91;95.97;102518.88;4978972;28;20041;-77
2023/01/28 01:04:11;;;;;;;23.05;12.85;;;;;;;1.88;95.67;102525.84;4979715;28;20060;-77
2023/01/28 01:06:39;;;;;;;23.70;12.48;;;;;;;1.92;96.02;102522.25;4994129;28;20249;-77
2023/01/28 01:09:07;;;;;;;22.50;12.45;;;;;;;1.88;95.67;102524.09;4995465;28;20052;-77
2023/01/28 01:11:33;;;;;;;22.98;12.48;;;;;;;1.90;95.68;102524.91;4979590;28;20023;-77
2023/01/28 01:14:00;;;;;;;21.02;13.48;;;;;;;1.86;95.55;102536.13;4994031;28;20041;-78
2023/01/28 01:16:32;;;;;;;23.05;12.93;;;;;;;1.83;96.42;102535.41;4996625;28;20026;-78
2023/01/28 01:18:58;;;;;;;21.67;12.50;;;;;;;1.79;96.37;102534.69;4995178;28;20042;-78
2023/01/28 01:21:29;;;;;;;22.48;13.15;;;;;;;1.92;94.49;102533.34;4976790;28;20031;-78
2023/01/28 01:23:55;;;;;;;20.77;12.70;;;;;;;1.83;94.62;102537.94;4984254;28;20116;-77
2023/01/28 01:26:21;;;;;;;24.73;14.13;;;;;;;1.80;95.35;102525.28;4981575;28;20042;-78
2023/01/28 01:28:47;;;;;;;25.48;13.35;;;;;;;1.78;94.81;102529.63;4949217;28;20050;-78
2023/01/28 01:31:16;;;;;;;26.08;14.35;;;;;;;1.78;94.15;102538.13;4979352;28;20030;-78
2023/01/28 01:33:43;;;;;;;29.00;13.23;;;;;;;1.72;94.32;102533.25;4986674;28;20057;-77
2023/01/28 01:36:10;;;;;;;24.60;14.65;;;;;;;1.71;94.78;102531.56;4966310;28;20070;-77
2023/01/28 01:38:36;;;;;;;23.17;13.95;;;;;;;1.70;94.06;102524.81;4985849;28;20046;-77
2023/01/28 01:41:04;;;;;;;23.35;13.93;;;;;;;1.64;94.26;102525.00;4977496;28;20041;-77
2023/01/28 01:43:55;;;;;;;24.88;14.68;;;;;;;1.66;94.32;102536.88;4998381;28;20527;-78
2023/01/28 01:46:38;;;;;;;22.55;13.30;;;;;;;1.71;93.63;102532.44;5000677;28;20326;-78
2023/01/28 01:49:12;;;;;;;27.50;13.90;;;;;;;1.67;93.31;102542.81;4981947;28;20054;-77
2023/01/28 01:51:38;;;;;;;;;;;;;;;1.67;93.36;102547.94;4986154;28;20053;-77
2023/01/28 01:54:05;;;;;;;26.70;13.93;;;;;;;1.65;93.55;102547.97;4984233;28;20402;-77
2023/01/28 01:56:36;;;;;;;24.75;15.00;;;;;;;1.64;93.96;102545.47;5002233;28;20644;-77
2023/01/28 01:59:03;;;;;;;28.40;15.98;;;;;;;1.59;93.51;102549.94;4990605;28;20045;-77
2023/01/28 02:01:31;;;;;;;27.58;15.40;;;;;;;1.59;93.88;102552.50;5003563;28;20134;-78
2023/01/28 02:04:03;;;;;;;27.92;17.30;;;;;;;1.58;94.07;102545.69;4966176;28;20054;-77
2023/01/28 02:06:29;;;;;;;30.13;15.77;;;;;;;1.54;94.10;102544.97;4969302;28;20050;-78
2023/01/28 02:08:55;;;;;;;27.58;16.00;;;;;;;1.53;93.57;102549.25;4990350;28;20563;-78
2023/01/28 02:11:26;;;;;;;27.77;16.95;;;;;;;1.52;94.01;102546.75;4992519;28;20077;-78
2023/01/28 02:13:54;;;;;;;31.98;16.90;;;;;;;1.55;93.86;102546.66;4997630;28;20500;-77
2023/01/28 02:16:21;;;;;;;32.72;18.98;;;;;;;1.49;94.05;102552.81;5005950;28;20112;-78
2023/01/28 02:18:46;;;;;;;35.20;18.35;;;;;;;1.49;94.37;102552.81;5004651;28;20149;-78
2023/01/28 02:21:27;;;;;;;34.97;20.33;;;;;;;1.59;94.14;102555.06;4995722;28;20129;-78
2023/01/28 02:24:17;;;;;;;33.55;19.52;;;;;;;1.50;94.39;102545.97;4990920;28;20031;-77
2023/01/28 02:27:05;;;;;;;37.30;20.45;;;;;;;1.50;94.65;102562.13;4972868;28;20034;-78
2023/01/28 02:29:43;;;;;;;42.17;21.30;;;;;;;1.53;94.64;102563.78;4970980;28;20100;-77
2023/01/28 02:32:08;;;;;;;37.50;19.27;;;;;;;1.59;92.50;102558.44;4968882;28;20045;-78
2023/01/28 02:34:44;;;;;;;32.38;18.23;;;;;;;1.47;92.12;102567.38;5002164;28;20253;-78
2023/01/28 02:37:24;;;;;;;26.52;16.35;;;;;;;1.53;91.12;102567.16;5003379;28;20057;-77
2023/01/28 02:40:08;;;;;;;26.67;16.45;;;;;;;1.49;90.77;102563.03;5001888;28;20037;-78
2023/01/28 02:42:37;;;;;;;23.85;15.02;;;;;;;1.45;91.89;102573.41;4986567;28;20389;-78
2023/01/28 02:45:15;;;;;;;32.40;18.30;;;;;;;1.46;91.18;102572.53;4987367;28;20018;-78
2023/01/28 02:47:59;;;;;;;25.00;15.48;;;;;;;1.45;91.75;102569.16;4988604;28;20657;-78
2023/01/28 02:50:37;;;;;;;25.77;15.20;;;;;;;1.34;91.98;102571.25;4987386;28;20033;-78
2023/01/28 02:53:40;;;;;;;20.27;13.23;;;;;;;1.35;91.85;102578.03;4977469;28;20077;-78
2023/01/28 02:56:28;;;;;;;18.70;11.05;;;;;;;1.29;91.25;102578.22;4991196;28;20074;-77
2023/01/28 03:02:31;;;;;;;17.42;9.93;;;;;;;1.24;90.85;102580.94;5004035;28;20193;-77
2023/01/28 03:05:15;;;;;;;15.82;10.25;;;;;;;1.28;90.70;102581.66;4966545;28;20046;-78
2023/01/28 03:07:40;;;;;;;15.77;10.13;;;;;;;1.31;89.55;102584.94;4991198;28;20122;-78
2023/01/28 03:10:10;;;;;;;22.60;11.38;;;;;;;1.17;89.24;102577.75;4991469;28;20030;-78
2023/01/28 03:38:17;;;;;;;16.15;10.68;;;;;;;0.99;89.65;102582.66;5020292;28;20042;-78
2023/01/28 03:40:55;;;;;;;16.90;12.02;;;;;;;1.01;89.77;102586.00;5032525;28;20101;-78
2023/01/28 03:43:22;;;;;;;19.27;11.25;;;;;;;0.99;89.94;102577.53;5001996;28;20038;-78
2023/01/28 03:45:52;;;;;;;21.25;11.23;;;;;;;1.00;90.33;102579.19;5013472;28;20050;-78
2023/01/28 03:48:20;;;;;;;22.70;11.68;;;;;;;0.94;90.47;102577.69;5007483;28;20034;-78
2023/01/28 03:50:46;;;;;;;20.52;10.70;;;;;;;0.91;90.12;102576.06;5013993;28;20034;-78
2023/01/28 03:53:14;;;;;;;15.35;10.10;;;;;;;0.93;89.63;102579.41;5012171;28;20085;-78
2023/01/28 03:55:46;;;;;;;17.90;12.15;;;;;;;0.91;89.83;102585.47;5013880;28;20402;-78
2023/01/28 03:58:13;;;;;;;17.63;11.05;;;;;;;0.95;89.39;102585.28;5013130;28;20535;-78
2023/01/28 04:00:42;;;;;;;16.65;10.27;;;;;;;0.98;89.25;102586.94;5029302;28;20489;-78
2023/01/28 04:03:15;;;;;;;15.18;10.10;;;;;;;0.97;88.51;102591.19;5012789;28;20049;-78
2023/01/28 04:05:58;;;;;;;14.35;9.77;;;;;;;0.95;88.41;102582.75;4995631;28;20030;-78
2023/01/28 04:08:25;;;;;;;19.25;10.95;;;;;;;0.97;87.22;102590.34;4976910;28;20389;-77
2023/01/28 04:11:15;;;;;;;19.17;11.18;;;;;;;0.95;87.89;102595.50;5002349;28;20042;-78
2023/01/28 04:13:44;;;;;;;15.05;10.73;;;;;;;0.90;88.05;102594.81;4973196;28;20381;-78
2023/01/28 04:16:13;;;;;;;18.45;11.32;;;;;;;0.89;87.15;102600.81;4989878;28;20401;-77
2023/01/28 04:18:40;;;;;;;16.83;10.30;;;;;;;0.89;87.67;102598.28;4973663;28;20298;-78
2023/01/28 04:21:07;;;;;;;18.38;10.73;;;;;;;0.94;87.28;102598.97;4974303;28;20031;-78
2023/01/28 04:23:33;;;;;;;17.35;11.25;;;;;;;0.88;86.96;102603.44;4989263;28;20030;-78
2023/01/28 04:25:59;;;;;;;17.35;11.13;;;;;;;0.88;86.94;102604.25;5018682;23;20124;-74
2023/01/28 04:28:25;;;;;;;18.02;11.48;;;;;;;0.84;86.76;102612.06;4999115;28;20557;-73
2023/01/28 04:30:51;;;;;;;21.95;12.20;;;;;;;0.77;86.96;102606.31;5018575;28;20121;-73
2023/01/28 04:33:46;;;;;;;23.92;12.20;;;;;;;0.77;86.56;102614.84;5001053;28;20488;-73
2023/01/28 04:36:38;;;;;;;22.73;12.55;;;;;;;0.81;86.72;102613.03;5018918;28;20084;-74
2023/01/28 04:39:29;;;;;;;23.17;13.75;;;;;;;0.84;86.30;102614.63;5018193;28;20029;-73
2023/01/28 04:42:13;;;;;;;23.10;13.38;;;;;;;0.78;87.14;102621.59;5014024;28;20048;-74
2023/01/28 04:44:59;;;;;;;23.77;13.43;;;;;;;0.77;87.02;102619.09;5013736;28;20048;-73
2023/01/28 04:47:51;;;;;;;27.45;13.48;;;;;;;0.82;86.52;102613.84;5011639;28;20041;-73
2023/01/28 04:50:43;;;;;;;26.48;13.43;;;;;;;0.76;87.11;102610.59;5008021;28;20037;-73
2023/01/28 04:53:26;;;;;;;27.98;15.65;;;;;;;0.77;86.69;102613.97;5002292;28;20504;-74
2023/01/28 04:55:56;;;;;;;27.67;15.13;;;;;;;0.79;87.04;102612.19;4998254;28;21355;-74
2023/01/28 04:58:23;;;;;;;28.92;15.63;;;;;;;0.74;86.57;102614.09;5018934;28;20081;-74
2023/01/28 05:00:59;;;;;;;25.05;14.27;;;;;;;0.75;85.77;102606.38;5014711;28;20029;-74
2023/01/28 05:03:25;;;;;;;25.80;14.85;;;;;;;0.77;85.66;102613.97;5013408;28;20044;-74
2023/01/28 05:05:51;;;;;;;27.48;14.85;;;;;;;0.76;86.30;102620.81;5020227;28;20033;-73
2023/01/28 05:08:33;;;;;;;24.85;14.68;;;;;;;0.84;84.65;102606.97;5017414;28;20048;-74
2023/01/28 05:10:58;;;;;;;26.27;14.82;;;;;;;0.79;84.24;102604.53;5036982;28;20033;-73
2023/01/28 05:13:24;;;;;;;23.77;13.43;;;;;;;0.71;84.47;102611.63;5019719;28;20431;-74
2023/01/28 05:15:52;;;;;;;22.92;13.82;;;;;;;0.72;84.36;102603.09;5021447;28;20368;-74
2023/01/28 05:18:17;;;;;;;24.83;14.02;;;;;;;0.72;85.32;102603.91;5018648;28;20033;-74
2023/01/28 05:20:52;;;;;;;23.60;14.30;;;;;;;0.73;85.47;102612.41;5034060;28;20014;-74
2023/01/28 05:23:17;;;;;;;26.33;13.98;;;;;;;0.74;86.24;102608.97;5018452;28;20034;-73
2023/01/28 05:25:52;;;;;;;26.55;14.07;;;;;;;0.84;86.67;102604.41;5017285;28;20069;-73
2023/01/28 05:28:19;;;;;;;24.23;14.32;;;;;;;0.77;86.68;102603.75;5004507;28;20121;-73
2023/01/28 05:30:45;;;;;;;27.63;15.82;;;;;;;0.78;86.69;102606.28;5017526;28;20034;-74
2023/01/28 05:33:11;;;;;;;25.65;15.32;;;;;;;0.82;86.69;102604.47;5038229;28;20107;-73
2023/01/28 05:35:36;;;;;;;28.55;14.63;;;;;;;0.75;86.65;102613.19;5023855;28;20037;-74
2023/01/28 05:38:02;;;;;;;29.55;15.50;;;;;;;0.75;84.95;102615.75;5024952;28;20052;-74
2023/01/28 05:40:28;;;;;;;29.02;14.77;;;;;;;0.66;84.16;102618.56;5016708;28;20107;-73
2023/01/28 05:42:53;;;;;;;24.95;14.10;;;;;;;0.72;82.07;102611.56;5018146;28;20038;-73
2023/01/28 05:45:31;;;;;;;29.63;16.45;;;;;;;0.61;82.53;102618.72;5022348;28;20391;-74
2023/01/28 05:48:22;;;;;;;28.65;16.00;;;;;;;0.65;83.37;102624.59;5018266;28;20495;-73
2023/01/28 05:51:04;;;;;;;29.02;15.40;;;;;;;0.67;81.18;102633.84;5021685;28;20034;-74
2023/01/28 05:53:34;;;;;;;28.92;16.05;;;;;;;0.60;82.62;102631.53;5019454;28;20444;-73
2023/01/28 05:56:00;;;;;;;31.45;15.73;;;;;;;0.62;83.09;102638.25;5019525;28;20026;-73
2023/01/28 05:58:30;;;;;;;27.33;16.27;;;;;;;0.61;83.00;102639.16;5018177;28;20622;-74
2023/01/28 06:00:57;;;;;;;29.70;16.38;;;;;;;0.63;82.77;102646.78;5011002;28;20041;-74
2023/01/28 06:03:29;;;;;;;29.73;16.88;;;;;;;0.56;82.16;102646.13;5032091;28;20037;-74
2023/01/28 06:05:55;;;;;;;29.58;16.50;;;;;;;0.58;82.48;102644.34;5023085;28;20034;-74
2023/01/28 06:08:20;;;;;;;29.33;16.88;;;;;;;0.64;83.05;102643.31;5021366;28;20034;-74
2023/01/28 06:10:46;;;;;;;30.90;17.15;;;;;;;0.63;82.93;102636.56;5003663;28;20491;-74
2023/01/28 06:13:12;;;;;;;27.58;15.13;;;;;;;0.60;83.14;102639.19;5004642;28;20033;-73
2023/01/28 06:15:56;;;;;;;27.80;15.30;;;;;;;0.56;82.96;102636.72;5021664;28;20053;-74
2023/01/28 06:18:36;;;;;;;32.05;15.82;;;;;;;0.57;83.07;102637.59;5008503;28;20033;-74
2023/01/28 06:21:01;;;;;;;26.15;15.68;;;;;;;0.58;83.63;102652.88;5021946;28;20033;-73
2023/01/28 06:23:27;;;;;;;28.10;15.77;;;;;;;0.58;84.16;102645.22;5002351;28;20045;-73
2023/01/28 06:25:54;;;;;;;33.75;16.40;;;;;;;0.58;82.80;102650.31;5021282;28;20029;-73
2023/01/28 06:28:20;;;;;;;33.25;16.50;;;;;;;0.62;83.23;102651.03;5017534;28;20403;-73
2023/01/28 06:30:50;;;;;;;27.00;16.20;;;;;;;0.57;83.94;102646.06;5023210;28;20030;-74
2023/01/28 06:33:16;;;;;;;33.00;17.48;;;;;;;0.54;82.94;102643.59;5021480;28;20038;-74
2023/01/28 06:35:42;;;;;;;29.98;16.85;;;;;;;0.58;82.27;102650.31;5038561;28;20037;-73
2023/01/28 06:38:08;;;;;;;31.58;17.50;;;;;;;0.57;82.51;102650.34;5023900;28;20403;-74
2023/01/28 06:40:33;;;;;;;33.42;18.08;;;;;;;0.56;82.81;102657.16;5023061;28;20033;-74
2023/01/28 06:42:59;;;;;;;31.58;17.15;;;;;;;0.55;83.02;102654.66;5020953;28;20045;-73
2023/01/28 06:45:25;;;;;;;31.20;16.73;;;;;;;0.54;83.52;102650.44;5009733;28;20025;-74
2023/01/28 06:47:50;;;;;;;32.60;18.63;;;;;;;0.56;83.59;102652.03;5016014;28;20109;-74
2023/01/28 06:50:16;;;;;;;35.08;18.88;;;;;;;0.54;83.24;102655.53;5023851;28;20028;-74
2023/01/28 06:52:42;;;;;;;34.80;18.23;;;;;;;0.50;82.89;102648.84;5020259;28;20362;-73
2023/01/28 06:55:07;;;;;;;37.85;17.92;;;;;;;0.47;81.73;102651.50;5022545;28;20061;-74
2023/01/28 06:57:33;;;;;;;35.00;17.92;;;;;;;0.59;80.96;102656.25;5016354;28;20064;-73
2023/01/28 06:59:58;;;;;;;32.40;17.35;;;;;;;0.48;81.69;102656.56;5018597;28;20041;-73
2023/01/28 07:02:24;;;;;;;32.30;17.80;;;;;;;0.46;81.37;102647.28;5003062;28;20530;-74
2023/01/28 07:04:49;;;;;;;33.33;17.92;;;;;;;0.44;82.01;102657.53;5015620;28;20036;-74
2023/01/28 07:07:15;;;;;;;39.05;18.80;;;;;;;0.47;81.48;102656.59;5015351;28;20041;-73
2023/01/28 07:09:40;;;;;;;34.10;18.13;;;;;;;0.47;81.75;102646.38;5016620;28;20034;-74
2023/01/28 07:12:06;;;;;;;33.05;17.80;;;;;;;0.48;82.50;102653.19;5019557;28;20586;-74
2023/01/28 07:14:32;;;;;;;38.35;18.92;;;;;;;0.46;82.78;102658.31;5018111;28;20083;-74
2023/01/28 07:16:57;;;;;;;35.78;18.83;;;;;;;0.45;83.01;102653.25;5018160;28;20072;-73
2023/01/28 07:19:23;;;;;;;34.05;17.40;;;;;;;0.44;81.80;102647.31;5023458;28;20041;-74
2023/01/28 07:21:48;;;;;;;33.72;18.25;;;;;;;0.45;82.23;102661.75;5013966;28;20032;-74
2023/01/28 07:24:13;;;;;;;41.15;19.77;;;;;;;0.45;82.31;102655.81;5019212;28;20021;-73
2023/01/28 07:26:39;;;;;;;36.55;18.35;;;;;;;0.47;82.54;102661.69;5022662;28;20442;-74
2023/01/28 07:29:04;;;;;;;36.47;18.75;;;;;;;0.47;83.23;102654.03;5013619;28;20120;-73
2023/01/28 07:31:30;;;;;;;47.00;21.48;;;;;;;0.53;82.21;102656.44;5017593;28;20514;-74
2023/01/28 07:33:56;;;;;;;43.28;20.13;;;;;;;0.48;81.97;102654.00;5020072;28;20492;-73
2023/01/28 07:36:21;;;;;;;43.53;21.73;;;;;;;0.50;82.19;102653.97;5019200;28;20041;-73
2023/01/28 07:38:47;;;;;;;41.05;20.35;;;;;;;0.48;81.55;102653.19;5019081;28;20033;-74
2023/01/28 07:41:12;;;;;;;121.13;51.88;;;;;;;0.47;81.66;102648.94;5015837;28;20545;-73
2023/01/28 07:43:38;;;;;;;60.78;28.50;;;;;;;0.44;81.73;102643.94;5019433;28;20377;-73
2023/01/28 07:46:03;;;;;;;43.63;22.58;;;;;;;0.47;81.35;102661.69;5021074;28;20048;-73
2023/01/28 07:48:29;;;;;;;42.88;21.80;;;;;;;0.45;81.50;102656.63;5031459;28;20030;-74
2023/01/28 07:50:58;;;;;;;46.03;22.77;;;;;;;0.43;82.06;102666.06;5020317;28;20515;-74
2023/01/28 07:53:23;;;;;;;47.90;22.73;;;;;;;0.43;82.40;102657.56;5017384;28;20061;-74
2023/01/28 07:55:49;;;;;;;46.47;22.60;;;;;;;0.44;82.55;102651.59;5019008;28;20033;-74
2023/01/28 07:58:14;;;;;;;47.35;22.23;;;;;;;0.44;83.01;102651.59;4999639;28;20045;-74
2023/01/28 08:00:40;;;;;;;47.92;22.52;;;;;;;0.44;83.02;102670.28;5017772;28;20419;-74
2023/01/28 08:03:15;;;;;;;50.10;22.63;;;;;;;0.46;82.45;102662.59;5017080;28;20084;-74
2023/01/28 08:05:50;;;;;;;44.72;23.33;;;;;;;0.45;82.49;102671.94;5020393;28;20068;-74
2023/01/28 08:08:15;;;;;;;44.80;22.52;;;;;;;0.45;82.83;102692.38;5016868;28;20065;-73
2023/01/28 08:10:42;;;;;;;46.40;23.08;;;;;;;0.49;83.71;102698.22;5017201;28;20498;-73
2023/01/28 08:13:09;;;;;;;59.42;25.48;;;;;;;0.44;82.18;102703.47;5014958;28;20060;-73
2023/01/28 08:15:35;;;;;;;50.30;23.58;;;;;;;0.44;82.60;102698.38;5020238;28;20045;-73
2023/01/28 08:18:03;;;;;;;51.75;24.27;;;;;;;0.45;82.34;102702.59;5019223;28;20136;-73
2023/01/28 08:20:29;;;;;;;51.70;24.40;;;;;;;0.49;82.81;102700.78;5016605;28;20045;-73
2023/01/28 08:23:15;;;;;;;47.88;22.33;;;;;;;0.51;81.94;102704.13;5018050;28;20026;-74
2023/01/28 08:25:40;;;;;;;52.88;23.73;;;;;;;0.51;81.34;102704.13;5020885;28;20041;-74
2023/01/28 08:28:06;;;;;;;45.83;23.08;;;;;;;0.52;81.07;102698.16;5019484;28;20120;-73
2023/01/28 08:30:33;;;;;;;50.17;23.52;;;;;;;0.56;81.84;102713.31;5020900;28;20040;-73
2023/01/28 08:32:59;;;;;;;49.45;23.58;;;;;;;0.58;81.17;102710.72;5003775;28;20072;-73
2023/01/28 08:35:26;;;;;;;50.05;23.85;;;;;;;0.59;80.47;102712.41;5018288;28;20040;-73
2023/01/28 08:37:52;;;;;;;49.25;24.45;;;;;;;0.60;80.59;102716.63;5018994;28;20492;-73
2023/01/28 08:40:18;;;;;;;47.92;23.05;;;;;;;0.60;81.36;102715.81;5019845;28;20232;-74
2023/01/28 08:42:51;;;;;;;53.83;23.15;;;;;;;0.60;80.53;102715.81;5001693;28;20137;-74
2023/01/28 08:45:18;;;;;;;46.13;23.25;;;;;;;0.57;79.85;102709.91;5015148;28;20449;-73
2023/01/28 08:47:51;;;;;;;49.22;22.65;;;;;;;0.63;80.33;102725.94;5016709;28;20586;-73
2023/01/28 08:50:18;;;;;;;50.78;23.58;;;;;;;0.62;81.11;102742.94;5019459;28;20033;-73
2023/01/28 08:52:45;;;;;;;49.03;22.83;;;;;;;0.66;80.07;102736.91;5016359;28;20048;-74
2023/01/28 08:55:11;;;;;;;42.53;21.70;;;;;;;0.63;79.92;102743.81;5018663;28;20311;-73
2023/01/28 08:57:37;;;;;;;45.25;21.00;;;;;;;0.63;80.29;102751.47;5016561;28;20496;-73
2023/01/28 09:00:04;;;;;;;49.17;24.75;;;;;;;0.66;80.06;102752.22;5016395;28;20041;-73
2023/01/28 09:02:29;;;;;;;44.95;21.70;;;;;;;0.68;80.26;102759.81;5003703;28;20038;-73
2023/01/28 09:04:55;;;;;;;50.25;22.00;;;;;;;0.70;79.96;102760.63;5017035;28;20030;-73
2023/01/28 09:07:20;;;;;;;45.20;20.75;;;;;;;0.83;80.15;102764.50;5000356;28;20030;-74
2023/01/28 09:09:46;;;;;;;48.78;22.05;;;;;;;0.72;78.85;102763.97;5020074;28;20510;-74
2023/01/28 09:12:11;;;;;;;43.65;20.15;;;;;;;0.71;79.62;102764.84;5017065;28;20045;-73
2023/01/28 09:14:37;;;;;;;45.33;21.63;;;;;;;0.69;79.36;102775.09;5017815;28;21352;-73
2023/01/28 09:17:05;;;;;;;47.63;21.20;;;;;;;0.66;79.98;102771.78;5017368;28;20041;-74
2023/01/28 09:19:31;;;;;;;44.92;21.55;;;;;;;0.68;79.58;102781.09;5022595;28;20055;-73
2023/01/28 09:21:56;;;;;;;46.28;19.98;;;;;;;0.67;80.38;102783.69;5017743;28;20037;-73
2023/01/28 09:24:22;;;;;;;46.85;21.45;;;;;;;0.71;80.27;102782.72;5016425;28;20458;-73
2023/01/28 09:26:48;;;;;;;44.35;20.48;;;;;;;0.72;80.15;102782.69;5007687;28;20480;-73
2023/01/28 09:29:14;;;;;;;48.95;21.45;;;;;;;0.76;80.76;102786.81;5003806;28;20395;-74
2023/01/28 09:31:40;;;;;;;43.70;20.08;;;;;;;0.80;80.91;102782.47;5030281;28;20038;-73
2023/01/28 09:34:06;;;;;;;47.03;21.10;;;;;;;0.92;79.46;102788.94;5020103;28;20498;-73
2023/01/28 09:36:32;;;;;;;52.05;22.30;;;;;;;0.85;78.85;102790.84;5015752;28;20041;-73
2023/01/28 09:38:57;;;;;;;45.15;20.95;;;;;;;0.73;78.69;102799.66;5002767;28;20053;-73
2023/01/28 09:41:57;;;;;;;44.80;20.63;;;;;;;0.69;79.49;102787.88;5016048;28;20034;-73
2023/01/28 09:44:48;;;;;;;44.83;20.67;;;;;;;0.74;79.43;102793.69;5014904;28;20538;-73
2023/01/28 09:47:24;;;;;;;44.88;20.55;;;;;;;0.71;79.79;102796.31;5007225;28;20064;-73
2023/01/28 09:49:53;;;;;;;45.55;20.38;;;;;;;0.77;79.82;102787.66;5033418;28;20033;-74
2023/01/28 09:52:23;;;;;;;49.10;21.23;;;;;;;0.71;79.18;102795.50;5010509;28;20554;-73
2023/01/28 09:55:04;;;;;;;46.65;19.67;;;;;;;0.77;78.91;102802.97;5016269;28;20449;-73
2023/01/28 09:57:45;;;;;;;47.17;20.63;;;;;;;0.80;78.73;102804.63;5034383;28;20116;-73
2023/01/28 10:00:15;;;;;;;41.58;19.65;;;;;;;0.74;78.13;102800.53;5005353;28;20029;-73
2023/01/28 10:02:40;;;;;;;45.63;20.17;;;;;;;0.83;76.96;102797.72;5018659;28;20029;-73
2023/01/28 10:05:25;;;;;;;47.85;22.30;;;;;;;0.74;77.63;102801.34;5021366;28;20120;-73
2023/01/28 10:08:09;;;;;;;45.90;20.40;;;;;;;0.68;77.78;102805.78;5018159;28;20041;-73
2023/01/28 10:10:49;;;;;;;52.33;22.85;;;;;;;0.68;79.33;102793.88;5022906;28;20045;-73
2023/01/28 10:13:29;;;;;;;46.85;20.40;;;;;;;0.72;78.47;102810.78;5015687;28;20137;-73
2023/01/28 10:16:20;;;;;;;48.20;22.33;;;;;;;0.72;79.16;102810.78;5021277;28;20100;-73
2023/01/28 10:19:11;;;;;;;44.95;21.58;;;;;;;0.75;76.19;102803.03;5017850;28;20591;-73
2023/01/28 10:21:53;;;;;;;58.72;21.42;;;;;;;0.79;77.19;102796.09;5033076;28;20030;-75
2023/01/28 10:24:34;;;;;;;47.90;21.15;;;;;;;0.74;76.95;102788.59;5015366;28;20389;-73
2023/01/28 10:27:02;;;;;;;47.22;22.00;;;;;;;0.83;77.26;102786.63;5020007;28;20070;-73
2023/01/28 10:29:32;;;;;;;47.45;21.35;;;;;;;0.77;76.19;102791.06;5004395;28;20030;-73
2023/01/28 10:32:12;;;;;;;44.10;20.52;;;;;;;0.81;75.35;102785.84;5019556;28;20495;-73
2023/01/28 10:34:38;;;;;;;50.00;21.83;;;;;;;0.81;75.50;102778.19;5018309;28;20623;-73
2023/01/28 10:37:04;;;;;;;49.42;21.35;;;;;;;0.88;76.10;102772.03;5030636;28;20109;-73
2023/01/28 10:39:29;;;;;;;45.72;21.35;;;;;;;0.93;75.65;102781.22;5017620;28;20120;-74
2023/01/28 10:41:55;;;;;;;44.95;20.75;;;;;;;0.95;75.76;102781.19;5019681;28;20033;-73
2023/01/28 10:44:30;;;;;;;44.20;20.48;;;;;;;1.02;75.90;102779.28;5021530;28;20238;-73
2023/01/28 10:47:00;;;;;;;46.33;20.58;;;;;;;1.06;76.55;102781.69;5020087;28;20537;-73
2023/01/28 10:49:29;;;;;;;43.78;20.20;;;;;;;1.21;76.53;102789.81;5020006;28;20087;-73
2023/01/28 10:51:55;;;;;;;47.60;21.65;;;;;;;1.12;75.27;102799.41;5020656;28;20029;-73
2023/01/28 10:54:23;;;;;;;48.40;22.42;;;;;;;1.07;74.60;102795.31;5024235;28;20103;-73
2023/01/28 10:57:00;;;;;;;47.47;21.10;;;;;;;1.11;74.59;102802.84;5003455;28;20033;-73
2023/01/28 10:59:28;;;;;;;50.75;23.27;;;;;;;1.12;74.30;102801.94;5019987;28;19990;-73
2023/01/28 11:02:02;;;;;;;47.60;22.75;;;;;;;1.13;74.00;102800.22;4999165;28;20437;-74
2023/01/28 11:04:32;;;;;;;44.13;20.85;;;;;;;1.08;74.22;102802.09;5018432;28;20069;-73
2023/01/28 11:07:15;;;;;;;46.47;21.67;;;;;;;1.10;75.80;102802.91;5018498;28;20066;-74
2023/01/28 11:09:46;;;;;;;45.25;21.10;;;;;;;1.12;75.36;102812.19;4996283;23;20698;-79
2023/01/28 11:12:19;;;;;;;40.35;18.95;;;;;;;1.19;74.73;102819.66;4959692;28;20043;-79
2023/01/28 11:14:52;;;;;;;;;;;;;;;1.03;73.79;102826.94;4944040;28;20653;-79
2023/01/28 11:17:20;;;;;;;41.08;19.02;;;;;;;1.00;73.55;102825.31;4945303;28;19922;-78
2023/01/28 11:19:46;;;;;;;40.75;19.50;;;;;;;0.96;74.29;102823.72;4945062;28;20106;-78
2023/01/28 11:22:35;;;;;;;42.33;18.27;;;;;;;0.95;74.62;102825.44;4946204;28;20214;-78
2023/01/28 11:25:05;;;;;;;41.50;19.08;;;;;;;0.97;75.14;102818.56;4932222;29;20065;-78
2023/01/28 11:27:32;;;;;;;48.35;20.55;;;;;;;0.98;73.76;102816.88;4946805;28;20036;-79
2023/01/28 11:30:02;;;;;;;41.42;20.23;;;;;;;0.95;74.80;102811.84;4950194;28;20520;-79
2023/01/28 11:32:29;;;;;;;38.60;19.27;;;;;;;1.06;75.77;102803.88;4944074;28;20130;-78
2023/01/28 11:35:02;;;;;;;34.65;17.48;;;;;;;1.05;75.66;102799.63;4926415;29;20477;-79
2023/01/28 11:37:28;;;;;;;32.10;16.02;;;;;;;1.07;76.21;102802.97;4951836;28;20069;-78
2023/01/28 11:40:01;;;;;;;34.85;16.95;;;;;;;1.14;75.23;102807.84;4948908;28;20551;-79
2023/01/28 11:42:27;;;;;;;37.25;17.38;;;;;;;1.07;74.53;102795.31;4949337;28;20037;-78
2023/01/28 11:44:53;;;;;;;42.22;18.63;;;;;;;0.91;75.66;102800.03;4950919;28;20023;-79
2023/01/28 11:47:43;;;;;;;34.10;17.75;;;;;;;0.88;74.96;102789.91;4938917;28;20532;-78
2023/01/28 11:50:36;;;;;;;36.95;17.80;;;;;;;0.82;76.27;102790.09;4948311;28;20039;-79
2023/01/28 11:53:24;;;;;;;36.13;18.65;;;;;;;0.87;75.73;102803.56;4939346;28;20039;-80
2023/01/28 11:56:22;;;;;;;38.00;18.67;;;;;;;0.87;75.89;102793.34;4938603;28;20036;-81
2023/01/28 11:59:18;;;;;;;41.60;19.35;;;;;;;0.82;75.39;102795.19;4947347;28;20145;-78
2023/01/28 12:02:15;;;;;;;42.42;19.45;;;;;;;0.77;76.27;102806.38;4948931;28;20039;-78